Time;durP1;ratioP1;P1;durP2;ratioP2;P2;SDS_P1;SDS_P2;PMS_P1;PMS_P2;Temp;Humidity;BMP_temperature;BMP_pressure;BME280_temperature;BME280_humidity;BME280_pressure;Samples;Min_cycle;Max_cycle;Signal;HPM_P1;HPM_P2
2023/04/17 00:01:50;;;;;;;20.40;11.60;;;10.50;99.90;;;10.57;nan;101201.97;5012926;28;20669;-66
2023/04/17 00:04:20;;;;;;;20.97;13.30;;;10.50;99.90;;;10.57;nan;101197.59;5010437;28;20673;-65
2023/04/17 00:06:48;;;;;;;19.63;12.60;;;10.50;99.90;;;10.53;nan;101195.28;5009203;28;20644;-62
2023/04/17 00:09:16;;;;;;;17.63;10.50;;;10.50;99.90;;;10.55;nan;101202.09;4999264;28;20747;-68
2023/04/17 00:11:43;;;;;;;19.77;12.40;;;10.50;99.90;;;10.56;nan;101203.75;5008868;28;20662;-65
2023/04/17 00:14:10;;;;;;;19.50;11.83;;;10.50;99.90;;;10.55;nan;101196.88;5001825;28;21503;-65
2023/04/17 00:16:37;;;;;;;19.70;10.53;;;10.50;99.90;;;10.57;nan;101202.81;5006730;28;20645;-67
2023/04/17 00:19:04;;;;;;;20.13;11.80;;;10.60;99.90;;;10.60;nan;101201.81;5017961;28;20629;-65
2023/04/17 00:21:31;;;;;;;19.83;10.90;;;10.60;99.90;;;10.58;nan;101209.75;5009834;28;20669;-67
2023/04/17 00:23:58;;;;;;;18.00;12.10;;;10.60;99.90;;;10.58;nan;101203.69;5009360;28;20677;-67
2023/04/17 00:26:25;;;;;;;17.70;10.50;;;10.50;99.90;;;10.58;nan;101207.13;5029586;28;20601;-67
2023/04/17 00:28:51;;;;;;;19.20;12.00;;;10.50;99.90;;;10.54;nan;101200.41;5009432;28;21066;-66
2023/04/17 00:31:18;;;;;;;22.60;12.13;;;10.50;99.90;;;10.55;nan;101199.47;5010941;28;20645;-66
2023/04/17 00:33:45;;;;;;;19.40;11.87;;;10.50;99.90;;;10.57;nan;101212.41;4998718;28;20657;-66
2023/04/17 00:36:14;;;;;;;18.50;12.00;;;10.60;99.90;;;10.54;nan;101200.41;5020239;28;20624;-63
2023/04/17 00:38:41;;;;;;;19.27;11.13;;;10.50;99.90;;;10.53;nan;101197.91;5018743;28;20645;-66
2023/04/17 00:41:08;;;;;;;22.17;12.30;;;10.50;99.90;;;10.47;nan;101188.69;5010005;28;21026;-65
2023/04/17 00:43:35;;;;;;;20.10;10.57;;;10.50;99.90;;;10.49;nan;101192.03;5012735;28;20653;-66
2023/04/17 00:46:04;;;;;;;19.87;10.87;;;10.50;99.90;;;10.46;nan;101194.81;5012166;28;20710;-66
2023/04/17 00:48:32;;;;;;;16.80;9.90;;;10.40;99.90;;;10.43;nan;101191.59;5016137;28;20617;-65
2023/04/17 00:51:02;;;;;;;21.13;12.60;;;10.40;99.90;;;10.44;nan;101196.69;5012327;28;20672;-67
2023/04/17 00:53:33;;;;;;;19.50;12.67;;;10.40;99.90;;;10.49;nan;101188.59;5011603;28;21201;-66
2023/04/17 00:56:02;;;;;;;17.17;11.77;;;10.40;99.90;;;10.45;nan;101185.34;5009319;28;20624;-67
2023/04/17 00:58:30;;;;;;;18.70;10.80;;;10.40;99.90;;;10.48;nan;101186.91;5000417;28;21223;-65
2023/04/17 01:00:58;;;;;;;27.73;12.43;;;10.40;99.90;;;10.47;nan;101180.03;5005534;28;20729;-64
2023/04/17 01:03:28;;;;;;;18.70;11.90;;;10.40;99.90;;;10.46;nan;101186.16;5021266;28;20664;-66
2023/04/17 01:05:56;;;;;;;18.77;11.20;;;10.50;99.90;;;10.44;nan;101180.19;5015432;28;20675;-67
2023/04/17 01:08:23;;;;;;;17.27;9.90;;;10.40;99.90;;;10.45;nan;101194.94;5031604;28;20625;-66
2023/04/17 01:10:50;;;;;;;16.07;8.40;;;10.40;99.90;;;10.43;nan;101182.00;5031152;28;20994;-67
2023/04/17 01:13:17;;;;;;;20.77;11.40;;;10.40;99.90;;;10.42;nan;101189.91;5009070;28;20652;-63
2023/04/17 01:15:45;;;;;;;18.87;10.67;;;10.40;99.90;;;10.44;nan;101172.38;5015747;28;21051;-68
2023/04/17 01:18:12;;;;;;;18.50;9.77;;;10.40;99.90;;;10.44;nan;101178.44;5015842;28;20672;-66
2023/04/17 01:20:39;;;;;;;18.67;11.30;;;10.40;99.90;;;10.46;nan;101178.31;5014019;28;20641;-66
2023/04/17 01:23:07;;;;;;;17.27;10.27;;;10.40;99.90;;;10.44;nan;101183.66;5000171;28;21282;-66
2023/04/17 01:25:34;;;;;;;20.40;11.50;;;10.40;99.90;;;10.44;nan;101180.19;5013928;28;20610;-65
2023/04/17 01:28:01;;;;;;;18.13;11.10;;;10.50;99.90;;;10.45;nan;101179.28;5005645;28;20708;-66
2023/04/17 01:30:28;;;;;;;17.33;11.67;;;10.40;99.90;;;10.45;nan;101187.09;5010472;28;20695;-64
2023/04/17 01:32:56;;;;;;;18.57;11.70;;;10.40;99.90;;;10.41;nan;101183.88;4998854;28;21091;-66
2023/04/17 01:35:23;;;;;;;16.13;9.83;;;10.40;99.90;;;10.38;nan;101186.66;4994320;28;20613;-66
2023/04/17 01:37:49;;;;;;;13.17;8.90;;;10.40;99.90;;;10.40;nan;101182.19;5011848;28;20605;-66
2023/04/17 01:40:17;;;;;;;15.57;9.57;;;10.40;99.90;;;10.39;nan;101183.09;5013004;28;20645;-67
2023/04/17 01:42:44;;;;;;;19.37;11.73;;;10.40;99.90;;;10.41;nan;101186.47;5001941;28;20677;-66
2023/04/17 01:45:11;;;;;;;16.97;11.47;;;10.40;99.90;;;10.41;nan;101180.41;5010308;28;20613;-68
2023/04/17 01:47:38;;;;;;;16.63;10.67;;;10.40;99.90;;;10.40;nan;101194.38;5011487;28;21040;-66
2023/04/17 01:50:07;;;;;;;18.93;11.87;;;10.40;99.90;;;10.33;nan;101183.47;5012726;28;20633;-67
2023/04/17 01:52:35;;;;;;;16.90;10.27;;;10.30;99.90;;;10.30;nan;101183.69;5013783;28;20721;-65
2023/04/17 01:55:03;;;;;;;14.97;8.50;;;10.30;99.90;;;10.33;nan;101180.88;5011581;28;21063;-65
2023/04/17 01:57:31;;;;;;;16.43;9.77;;;10.30;99.90;;;10.36;nan;101185.91;5008575;28;20617;-66
2023/04/17 01:59:58;;;;;;;17.13;9.80;;;10.30;99.90;;;10.35;nan;101181.59;5012334;28;20659;-66
2023/04/17 02:02:25;;;;;;;13.40;8.60;;;10.30;99.90;;;10.39;nan;101174.44;5015977;28;20755;-65
2023/04/17 02:04:52;;;;;;;15.50;9.43;;;10.40;99.90;;;10.38;nan;101181.44;5021102;28;20661;-64
2023/04/17 02:07:19;;;;;;;14.93;9.40;;;10.40;99.90;;;10.41;nan;101186.47;5007614;28;20697;-66
2023/04/17 02:09:46;;;;;;;17.67;9.97;;;10.40;99.90;;;10.41;nan;101175.19;5020162;28;20625;-66
2023/04/17 02:12:13;;;;;;;15.87;10.40;;;10.40;99.90;;;10.40;nan;101186.53;5010146;28;20652;-66
2023/04/17 02:14:40;;;;;;;19.93;11.83;;;10.40;99.90;;;10.39;nan;101182.28;5000921;28;20624;-65
2023/04/17 02:17:07;;;;;;;17.43;9.03;;;10.40;99.90;;;10.35;nan;101176.41;5010386;28;20718;-64
2023/04/17 02:19:34;;;;;;;13.47;9.37;;;10.30;99.90;;;10.34;nan;101177.34;4998720;28;20630;-65
2023/04/17 02:22:01;;;;;;;19.97;10.70;;;10.30;99.90;;;10.35;nan;101173.78;4994124;28;20673;-64
2023/04/17 02:24:29;;;;;;;11.40;7.80;;;10.40;99.90;;;10.36;nan;101188.53;5011748;28;21263;-65
2023/04/17 02:26:56;;;;;;;17.03;9.87;;;10.30;99.90;;;10.37;nan;101187.56;5011457;28;20640;-65
2023/04/17 02:29:23;;;;;;;20.40;12.80;;;10.30;99.90;;;10.36;nan;101185.91;4997476;28;20646;-64
2023/04/17 02:31:50;;;;;;;16.27;10.60;;;10.40;99.90;;;10.36;nan;101183.31;5007765;28;20665;-65
2023/04/17 02:34:17;;;;;;;20.40;11.17;;;10.40;99.90;;;10.35;nan;101183.41;5011596;28;21192;-64
2023/04/17 02:36:44;;;;;;;20.90;12.07;;;10.40;99.90;;;10.32;nan;101180.97;5013831;28;21010;-64
2023/04/17 02:39:11;;;;;;;19.37;11.67;;;10.30;99.90;;;10.31;nan;101182.75;5012092;28;20675;-64
2023/04/17 02:41:39;;;;;;;25.93;11.97;;;10.30;99.90;;;10.34;nan;101187.78;5006905;28;20669;-64
2023/04/17 02:44:06;;;;;;;21.67;12.37;;;10.30;99.90;;;10.38;nan;101184.03;5006625;28;20723;-64
2023/04/17 02:46:33;;;;;;;22.57;12.90;;;10.30;99.90;;;10.40;nan;101189.16;5012661;28;20706;-65
2023/04/17 02:48:59;;;;;;;21.10;12.87;;;10.30;99.90;;;10.40;nan;101182.19;5011282;28;20629;-64
2023/04/17 02:51:26;;;;;;;22.00;12.80;;;10.30;99.90;;;10.40;nan;101179.56;5030076;28;20660;-65
2023/04/17 02:53:53;;;;;;;23.57;12.43;;;10.30;99.90;;;10.43;nan;101189.81;5003254;28;20638;-64
2023/04/17 02:56:20;;;;;;;19.03;10.70;;;10.40;99.90;;;10.43;nan;101189.81;5010426;28;20661;-66
2023/04/17 02:58:47;;;;;;;23.27;13.83;;;10.30;99.90;;;10.40;nan;101184.78;5007307;28;20639;-65
2023/04/17 03:01:14;;;;;;;21.90;12.37;;;10.30;99.90;;;10.39;nan;101196.13;5011303;28;20670;-64
2023/04/17 03:03:41;;;;;;;24.33;14.00;;;10.30;99.90;;;10.33;nan;101186.09;4995597;28;20702;-66
2023/04/17 03:06:08;;;;;;;21.90;13.30;;;10.20;99.90;;;10.31;nan;101182.75;4992962;28;20658;-67
2023/04/17 03:08:37;;;;;;;23.27;12.60;;;10.20;99.90;;;10.34;nan;101185.16;4993663;28;20638;-66
2023/04/17 03:11:05;;;;;;;25.43;13.87;;;10.20;99.90;;;10.32;nan;101180.97;4992765;28;20642;-65
2023/04/17 03:13:35;;;;;;;23.63;14.00;;;10.20;99.90;;;10.32;nan;101183.59;5017140;28;20633;-66
2023/04/17 03:16:03;;;;;;;25.60;14.57;;;10.20;99.90;;;10.32;nan;101186.19;5013757;28;20636;-65
2023/04/17 03:18:30;;;;;;;28.70;16.10;;;10.20;99.90;;;10.33;nan;101180.06;5011490;28;21211;-66
2023/04/17 03:20:57;;;;;;;23.80;15.20;;;10.20;99.90;;;10.35;nan;101179.00;5011087;28;20661;-64
2023/04/17 03:23:24;;;;;;;26.23;15.37;;;10.30;99.90;;;10.34;nan;101177.34;5025791;28;20661;-64
2023/04/17 03:25:52;;;;;;;25.53;15.40;;;10.30;99.90;;;10.33;nan;101174.84;4998225;28;21191;-64
2023/04/17 03:28:20;;;;;;;27.70;18.63;;;10.30;99.90;;;10.33;nan;101178.25;4991759;28;20648;-66
2023/04/17 03:30:48;;;;;;;25.47;13.93;;;10.30;99.90;;;10.28;nan;101182.09;4991045;28;21053;-63
2023/04/17 03:33:16;;;;;;;23.80;14.60;;;10.20;99.90;;;10.24;nan;101180.63;4991925;28;20606;-65
2023/04/17 03:35:45;;;;;;;20.93;11.80;;;10.20;99.90;;;10.25;nan;101185.72;4993270;28;20633;-65
2023/04/17 03:38:12;;;;;;;24.50;15.20;;;10.20;99.90;;;10.23;nan;101185.00;5001167;28;20701;-66
2023/04/17 03:40:39;;;;;;;27.40;15.20;;;10.10;99.90;;;10.23;nan;101179.78;5000542;28;21232;-65
2023/04/17 03:43:06;;;;;;;20.73;12.40;;;10.10;99.90;;;10.22;nan;101185.09;4996147;28;20641;-64
2023/04/17 03:45:33;;;;;;;24.70;12.60;;;10.10;99.90;;;10.19;nan;101187.88;5005889;28;20629;-65
2023/04/17 03:48:01;;;;;;;19.53;11.50;;;10.10;99.90;;;10.19;nan;101182.66;5016072;28;21058;-65
2023/04/17 03:50:28;;;;;;;23.47;12.90;;;10.10;99.90;;;10.19;nan;101185.25;5005798;28;20633;-65
2023/04/17 03:52:55;;;;;;;22.57;12.40;;;10.10;99.90;;;10.19;nan;101193.09;5010399;28;21227;-66
2023/04/17 03:55:22;;;;;;;20.23;11.00;;;10.10;99.90;;;10.19;nan;101191.31;5006736;28;20694;-65
2023/04/17 03:57:50;;;;;;;25.50;14.00;;;10.10;99.90;;;10.18;nan;101186.22;5012236;28;20632;-65
2023/04/17 04:00:18;;;;;;;24.10;12.00;;;10.10;99.90;;;10.16;nan;101193.28;5010785;28;20630;-65
2023/04/17 04:02:45;;;;;;;22.60;13.77;;;10.10;99.90;;;10.13;nan;101191.72;5007793;28;21251;-63
2023/04/17 04:05:12;;;;;;;25.63;14.17;;;10.10;99.90;;;10.12;nan;101193.47;5008880;28;20665;-65
2023/04/17 04:07:39;;;;;;;24.90;13.67;;;10.10;99.90;;;10.10;nan;101195.34;5000463;28;20714;-66
2023/04/17 04:10:07;;;;;;;25.83;16.73;;;10.00;99.90;;;10.09;nan;101193.63;4998348;28;21475;-65
2023/04/17 04:12:34;;;;;;;27.70;15.07;;;10.00;99.90;;;10.10;nan;101189.25;4999284;28;20674;-66
2023/04/17 04:15:01;;;;;;;25.07;16.37;;;10.00;99.90;;;10.11;nan;101194.38;4999439;28;21026;-65
2023/04/17 04:17:28;;;;;;;23.43;12.40;;;10.10;99.90;;;10.14;nan;101191.59;5001365;28;20655;-65
2023/04/17 04:19:55;;;;;;;27.43;15.80;;;10.10;99.90;;;10.13;nan;101194.31;5008830;28;20642;-66
2023/04/17 04:22:22;;;;;;;27.80;16.30;;;10.10;99.90;;;10.13;nan;101200.38;5007039;28;20677;-66
2023/04/17 04:24:52;;;;;;;24.20;13.97;;;10.10;99.90;;;10.11;nan;101193.56;5010928;28;20657;-65
2023/04/17 04:27:21;;;;;;;24.90;13.90;;;10.10;99.90;;;10.13;nan;101207.34;4999554;28;20645;-64
2023/04/17 04:29:49;;;;;;;26.50;14.97;;;10.10;99.90;;;10.07;nan;101205.91;5007997;28;20637;-65
2023/04/17 04:32:16;;;;;;;21.07;11.90;;;10.00;99.90;;;10.05;nan;101201.75;5009679;28;20696;-65
2023/04/17 04:34:43;;;;;;;28.23;15.30;;;10.00;99.90;;;9.98;nan;101206.50;4994227;28;20639;-66
2023/04/17 04:37:14;;;;;;;22.90;12.33;;;9.90;99.90;;;9.96;nan;101210.13;5006269;28;21197;-65
2023/04/17 04:39:41;;;;;;;25.03;13.73;;;9.90;99.90;;;9.97;nan;101206.56;5002096;28;20641;-65
2023/04/17 04:42:09;;;;;;;26.80;16.70;;;9.90;99.90;;;10.00;nan;101203.78;5013983;28;20676;-66
2023/04/17 04:44:36;;;;;;;28.90;15.70;;;9.90;99.90;;;10.01;nan;101215.88;5006174;28;20714;-65
2023/04/17 04:47:03;;;;;;;29.60;14.80;;;9.90;99.90;;;10.05;nan;101212.16;5009608;28;20671;-66
2023/04/17 04:49:30;;;;;;;22.50;12.60;;;10.00;99.90;;;10.08;nan;101211.97;5008966;28;20633;-64
2023/04/17 04:51:57;;;;;;;22.80;12.00;;;10.00;99.90;;;10.11;nan;101209.22;5010948;28;21217;-65
2023/04/17 04:54:24;;;;;;;27.90;16.30;;;10.10;99.90;;;10.12;nan;101218.69;4990498;28;20794;-65
2023/04/17 04:56:51;;;;;;;26.37;16.60;;;10.10;99.90;;;10.11;nan;101219.66;5009669;28;20621;-63
2023/04/17 04:59:21;;;;;;;26.80;14.13;;;10.10;99.90;;;10.16;nan;101219.38;5002458;28;21181;-66
2023/04/17 05:01:48;;;;;;;25.07;14.80;;;10.10;99.90;;;10.13;nan;101217.78;5004112;28;20673;-66
2023/04/17 05:04:15;;;;;;;21.57;12.00;;;10.10;99.90;;;10.13;nan;101230.81;5009555;28;20653;-65
2023/04/17 05:06:42;;;;;;;21.50;12.33;;;10.10;99.90;;;10.16;nan;101229.81;4999628;28;20645;-64
2023/04/17 05:09:09;;;;;;;19.50;11.70;;;10.10;99.90;;;10.21;nan;101232.94;5027078;28;20625;-65
2023/04/17 05:11:36;;;;;;;24.50;13.77;;;10.10;99.90;;;10.22;nan;101235.50;5009610;28;20715;-66
2023/04/17 05:14:03;;;;;;;26.57;15.00;;;10.10;99.90;;;10.23;nan;101228.47;5006489;28;21415;-64
2023/04/17 05:16:30;;;;;;;21.03;12.83;;;10.10;99.90;;;10.25;nan;101231.81;5001688;28;21101;-66
2023/04/17 05:18:57;;;;;;;20.67;12.30;;;10.20;99.90;;;10.28;nan;101229.03;5009402;28;20646;-65
2023/04/17 05:21:26;;;;;;;22.20;13.10;;;10.20;99.90;;;10.31;nan;101234.91;5011120;28;21077;-65
2023/04/17 05:23:54;;;;;;;23.30;13.70;;;10.20;99.90;;;10.38;nan;101236.22;5007663;28;20676;-66
2023/04/17 05:26:21;;;;;;;26.20;14.83;;;10.30;99.90;;;10.43;nan;101234.16;5013168;28;20667;-65
2023/04/17 05:28:48;;;;;;;24.87;14.17;;;10.40;99.90;;;10.53;nan;101232.66;5006254;28;21188;-65
2023/04/17 05:31:15;;;;;;;23.37;13.70;;;10.40;99.90;;;10.68;nan;101226.50;5013529;28;20699;-64
2023/04/17 05:33:42;;;;;;;20.70;12.00;;;10.50;99.90;;;10.94;nan;101236.09;5012864;28;20628;-65
2023/04/17 05:36:10;;;;;;;26.67;13.20;;;10.80;99.90;;;11.32;nan;101236.25;5004809;28;20641;-64
2023/04/17 05:38:36;;;;;;;22.53;13.80;;;11.20;99.90;;;11.73;nan;101238.78;4992181;28;20621;-64
2023/04/17 05:41:06;;;;;;;24.70;12.20;;;11.60;99.90;;;12.00;nan;101247.38;4988961;28;20662;-64
2023/04/17 05:43:33;;;;;;;20.00;12.50;;;11.80;99.90;;;12.08;nan;101237.22;5001904;28;21038;-63
2023/04/17 05:46:01;;;;;;;16.97;8.87;;;12.00;99.90;;;12.18;nan;101240.03;5005178;28;20668;-66
2023/04/17 05:48:28;;;;;;;22.10;12.50;;;12.10;99.90;;;12.43;nan;101238.22;5010099;28;20625;-63
2023/04/17 05:50:56;;;;;;;19.60;13.37;;;12.30;99.90;;;12.87;nan;101231.59;5008155;28;20641;-64
2023/04/17 05:53:23;;;;;;;20.60;12.77;;;12.70;99.90;;;13.41;nan;101239.88;5009567;28;21160;-65
2023/04/17 05:55:50;;;;;;;23.37;14.27;;;13.20;99.90;;;13.98;nan;101235.50;5027307;28;20690;-66
2023/04/17 05:58:17;;;;;;;20.27;13.37;;;13.80;99.90;;;14.34;nan;101245.81;5022878;28;20654;-66
2023/04/17 06:00:50;;;;;;;24.20;13.33;;;14.20;99.90;;;14.54;nan;101242.47;5019886;28;20646;-65
2023/04/17 06:03:17;;;;;;;23.00;14.53;;;14.40;99.90;;;14.62;nan;101239.25;5005673;28;20639;-64
2023/04/17 06:05:45;;;;;;;21.20;14.13;;;14.50;99.90;;;14.40;nan;101240.09;5019788;28;21085;-64
2023/04/17 06:08:13;;;;;;;20.60;16.70;;;14.40;99.90;;;14.03;nan;101244.69;5010264;28;20683;-66
2023/04/17 06:10:40;;;;;;;20.00;14.03;;;14.10;99.90;;;13.63;nan;101247.84;5006704;28;20659;-65
2023/04/17 06:13:07;;;;;;;21.47;13.97;;;13.70;99.90;;;13.28;nan;101250.44;5010652;28;20629;-64
2023/04/17 06:15:34;;;;;;;22.27;13.80;;;13.30;99.90;;;13.39;nan;101260.97;4998482;28;20629;-64
2023/04/17 06:18:01;;;;;;;20.80;13.10;;;13.30;99.90;;;13.86;nan;101250.38;5003074;28;21408;-64
2023/04/17 06:20:28;;;;;;;17.73;12.07;;;13.70;99.90;;;14.64;nan;101258.34;5002087;28;20645;-66
2023/04/17 06:22:55;;;;;;;21.30;14.27;;;14.40;99.90;;;15.51;nan;101260.88;5001043;28;20700;-65
2023/04/17 06:25:23;;;;;;;21.90;11.73;;;15.30;99.90;;;16.36;nan;101251.81;5009147;28;20672;-66
2023/04/17 06:27:50;;;;;;;20.50;12.87;;;16.10;99.90;;;17.00;nan;101263.72;5007157;28;20640;-65
2023/04/17 06:30:17;;;;;;;22.77;13.30;;;16.80;99.90;;;17.67;nan;101265.59;5011208;28;20617;-66
2023/04/17 06:32:44;;;;;;;18.43;13.20;;;17.50;99.90;;;18.33;nan;101261.97;5006348;28;21237;-66
2023/04/17 06:35:10;;;;;;;23.93;16.43;;;18.30;99.90;;;18.80;nan;101262.75;5014075;28;20636;-66
2023/04/17 06:37:38;;;;;;;18.93;13.27;;;18.80;99.90;;;18.36;nan;101263.44;4999706;28;21227;-64
2023/04/17 06:40:06;;;;;;;21.80;13.40;;;18.60;99.90;;;17.55;nan;101256.13;4994169;28;21028;-63
2023/04/17 06:42:34;;;;;;;18.83;11.17;;;17.80;99.90;;;16.69;nan;101256.00;5002627;28;20738;-66
2023/04/17 06:45:01;;;;;;;26.90;15.90;;;17.00;99.90;;;15.79;nan;101255.00;5003409;28;20680;-66
2023/04/17 06:47:28;;;;;;;23.43;17.40;;;16.10;99.90;;;15.29;nan;101255.69;5009739;28;20634;-64
2023/04/17 06:49:56;;;;;;;21.77;15.50;;;15.50;99.90;;;15.22;nan;101255.34;5005489;28;21185;-66
2023/04/17 06:52:23;;;;;;;19.90;14.77;;;15.40;99.90;;;14.96;nan;101248.72;5010615;28;21072;-63
2023/04/17 06:54:54;;;;;;;23.03;15.13;;;15.10;99.90;;;14.61;nan;101254.16;4996110;28;20625;-66
2023/04/17 06:57:21;;;;;;;21.70;13.00;;;14.80;99.90;;;14.40;nan;101265.50;5006814;28;20658;-65
2023/04/17 06:59:48;;;;;;;23.77;15.10;;;14.40;99.90;;;14.11;nan;101265.09;4990532;28;20642;-64
2023/04/17 07:02:16;;;;;;;22.50;12.13;;;14.20;99.90;;;13.89;nan;101265.06;5005307;28;20665;-66
2023/04/17 07:04:43;;;;;;;22.97;16.20;;;14.00;99.90;;;13.79;nan;101272.78;5009555;28;20673;-66
2023/04/17 07:07:10;;;;;;;24.70;15.73;;;13.80;99.90;;;13.98;nan;101259.13;5010460;28;20636;-66
2023/04/17 07:09:37;;;;;;;24.43;16.07;;;13.90;99.90;;;14.41;nan;101261.94;5010518;28;20617;-66
2023/04/17 07:12:04;;;;;;;21.10;13.97;;;14.30;99.90;;;15.11;nan;101263.25;4994112;28;20662;-66
2023/04/17 07:14:32;;;;;;;22.33;15.37;;;14.90;99.90;;;16.08;nan;101268.31;5010531;28;20617;-65
2023/04/17 07:16:59;;;;;;;21.30;13.30;;;15.70;99.90;;;17.01;nan;101260.09;5010817;28;21172;-66
2023/04/17 07:19:26;;;;;;;20.37;12.90;;;16.60;99.90;;;17.98;nan;101258.28;5005070;28;20645;-66
2023/04/17 07:21:53;;;;;;;21.37;13.10;;;17.70;99.90;;;18.72;nan;101264.47;5010747;28;20660;-64
2023/04/17 07:24:20;;;;;;;19.07;13.43;;;18.50;99.90;;;18.84;nan;101274.69;4993486;28;20645;-65
2023/04/17 07:26:48;;;;;;;18.97;13.73;;;18.70;99.90;;;19.20;nan;101267.63;4990443;28;20699;-66
2023/04/17 07:29:15;;;;;;;18.43;12.50;;;19.10;99.90;;;19.20;nan;101272.91;5004575;28;20633;-66
2023/04/17 07:31:42;;;;;;;16.50;9.70;;;19.20;99.90;;;19.80;nan;101266.88;5010546;28;20661;-66
2023/04/17 07:34:09;;;;;;;16.90;9.60;;;19.80;99.90;;;20.33;nan;101284.44;5011497;28;20630;-66
2023/04/17 07:36:36;;;;;;;20.47;12.20;;;20.30;99.90;;;20.77;nan;101286.81;5010027;28;21312;-66
2023/04/17 07:39:05;;;;;;;15.90;10.40;;;20.70;99.90;;;21.20;nan;101277.00;5010085;28;21201;-66
2023/04/17 07:41:32;;;;;;;18.13;12.63;;;21.20;99.90;;;21.60;nan;101269.91;5009838;28;20665;-64
2023/04/17 07:44:02;;;;;;;19.63;12.67;;;21.60;99.50;;;21.38;nan;101286.50;5003338;28;21065;-66
2023/04/17 07:46:29;;;;;;;17.10;12.23;;;21.50;97.50;;;21.10;nan;101293.09;4992062;28;20891;-65
2023/04/17 07:48:56;;;;;;;17.63;12.97;;;21.40;97.40;;;20.54;nan;101287.53;5000743;28;20623;-66
2023/04/17 07:51:23;;;;;;;15.13;10.80;;;20.90;97.50;;;20.45;nan;101291.13;5009542;28;20645;-67
2023/04/17 07:53:50;;;;;;;16.37;13.00;;;20.70;98.40;;;21.02;nan;101290.34;5001969;28;20642;-66
2023/04/17 07:56:17;;;;;;;15.20;12.77;;;21.10;98.30;;;21.63;nan;101300.63;5002349;28;20626;-64
2023/04/17 07:58:44;;;;;;;16.13;13.27;;;21.80;96.50;;;22.18;nan;101292.81;5005897;28;21209;-66
2023/04/17 08:01:12;;;;;;;17.67;14.20;;;22.40;95.40;;;22.23;nan;101295.81;4999750;28;20680;-66
2023/04/17 08:03:40;;;;;;;16.03;14.33;;;22.60;93.60;;;21.64;nan;101295.16;5011253;28;20632;-67
2023/04/17 08:06:07;;;;;;;18.20;14.30;;;22.10;93.70;;;20.85;nan;101283.34;5011982;28;20675;-67
2023/04/17 08:08:35;;;;;;;17.77;14.63;;;21.40;95.00;;;20.14;nan;101288.13;5005639;28;20625;-65
2023/04/17 08:11:02;;;;;;;20.57;16.57;;;20.70;96.00;;;19.30;nan;101281.59;5008433;28;20665;-68
2023/04/17 08:13:31;;;;;;;18.90;12.40;;;19.80;97.50;;;18.99;nan;101294.34;5009051;28;20621;-65
2023/04/17 08:15:58;;;;;;;21.70;13.70;;;19.30;99.30;;;19.06;nan;101294.59;5007948;28;20637;-68
2023/04/17 08:18:25;;;;;;;19.80;11.43;;;19.40;99.60;;;19.15;nan;101301.63;5011369;28;20618;-66
2023/04/17 08:20:52;;;;;;;17.80;15.50;;;19.40;99.90;;;18.99;nan;101285.59;5006210;28;20706;-66
2023/04/17 08:23:19;;;;;;;20.70;15.20;;;19.30;99.90;;;18.94;nan;101290.47;5002320;28;20629;-67
2023/04/17 08:25:46;;;;;;;17.87;11.80;;;19.10;99.90;;;19.49;nan;101302.66;5007595;28;20669;-66
2023/04/17 08:28:13;;;;;;;15.83;12.43;;;19.60;99.90;;;20.49;nan;101309.22;5002920;28;21060;-65
2023/04/17 08:30:40;;;;;;;14.70;12.53;;;20.50;99.40;;;21.87;nan;101294.53;5009484;28;21255;-66
2023/04/17 08:33:07;;;;;;;16.97;12.80;;;22.00;97.00;;;22.16;nan;101308.94;5007098;28;20644;-66
2023/04/17 08:35:34;;;;;;;14.87;13.00;;;22.60;93.70;;;21.77;nan;101299.13;5009849;28;20602;-66
2023/04/17 08:38:01;;;;;;;16.53;12.60;;;22.20;93.80;;;21.12;nan;101300.88;5018182;28;20636;-65
2023/04/17 08:40:28;;;;;;;15.37;12.40;;;21.60;94.60;;;20.60;nan;101313.41;5028545;28;21403;-66
2023/04/17 08:42:56;;;;;;;13.80;9.47;;;21.00;94.90;;;19.81;nan;101294.16;5017134;28;20668;-65
2023/04/17 08:45:23;;;;;;;14.47;11.47;;;20.20;95.60;;;19.28;nan;101294.16;5004607;28;20692;-66
2023/04/17 08:47:50;;;;;;;14.17;9.63;;;19.60;96.70;;;19.20;nan;101302.00;4990245;28;20735;-66
2023/04/17 08:50:20;;;;;;;12.10;10.80;;;19.40;97.50;;;19.16;nan;101301.50;5005320;28;20641;-67
2023/04/17 08:52:50;;;;;;;11.47;10.07;;;19.40;97.40;;;19.22;nan;101289.47;5014827;28;20668;-66
2023/04/17 08:55:24;;;;;;;12.30;10.40;;;19.40;97.80;;;19.05;nan;101295.56;5009967;28;20633;-68
2023/04/17 08:57:59;;;;;;;11.93;10.67;;;19.20;97.70;;;19.10;nan;101291.47;5012093;28;21180;-67
2023/04/17 09:00:32;;;;;;;10.30;7.00;;;19.20;98.40;;;19.18;nan;101296.03;4993951;28;20628;-66
2023/04/17 09:03:02;;;;;;;11.60;7.97;;;19.30;97.70;;;19.67;nan;101298.19;5005080;28;20672;-67
2023/04/17 09:05:35;;;;;;;13.00;8.17;;;19.60;98.20;;;20.77;nan;101296.59;5009026;28;20657;-66
2023/04/17 09:08:22;;;;;;;13.70;10.10;;;20.70;96.70;;;21.81;nan;101295.97;4992704;28;21329;-66
2023/04/17 09:10:52;;;;;;;12.80;10.30;;;21.80;95.40;;;22.49;nan;101298.22;4992311;28;20652;-66
2023/04/17 09:13:24;;;;;;;12.83;11.50;;;22.70;92.90;;;22.34;nan;101303.38;4993772;28;21216;-70
2023/04/17 09:16:09;;;;;;;10.23;7.23;;;22.60;92.50;;;22.25;nan;101307.91;5006253;28;20630;-68
2023/04/17 09:18:38;;;;;;;9.77;8.43;;;22.60;91.60;;;22.33;nan;101299.09;5011095;28;20609;-71
2023/04/17 09:21:06;;;;;;;9.83;7.00;;;22.50;91.40;;;22.39;nan;101309.03;5010464;28;20657;-69
2023/04/17 09:23:55;;;;;;;10.10;8.70;;;22.80;90.70;;;21.18;nan;101301.06;5010049;28;20605;-70
2023/04/17 09:26:24;;;;;;;11.40;9.03;;;21.70;91.20;;;20.01;nan;101295.66;5011323;28;20668;-67
2023/04/17 09:29:07;;;;;;;8.40;4.93;;;20.50;92.70;;;18.72;nan;101312.03;5012035;28;20629;-67
2023/04/17 09:31:36;;;;;;;13.50;8.17;;;19.20;94.70;;;17.75;nan;101308.78;5003919;28;20664;-67
2023/04/17 09:34:11;;;;;;;11.03;8.00;;;18.10;97.30;;;17.23;nan;101308.31;5012316;28;20636;-68
2023/04/17 09:36:40;;;;;;;10.80;8.93;;;17.40;99.50;;;16.54;nan;101307.41;5015927;28;20645;-66
2023/04/17 09:39:24;;;;;;;11.67;8.40;;;16.80;99.90;;;16.16;nan;101306.19;5007194;28;20723;-66
2023/04/17 09:42:02;;;;;;;10.57;8.50;;;16.30;99.90;;;15.98;nan;101309.53;4998022;28;20664;-67
2023/04/17 09:44:30;;;;;;;12.13;9.83;;;16.00;99.90;;;15.57;nan;101314.78;5011120;28;20641;-70
2023/04/17 09:46:59;;;;;;;12.37;9.90;;;15.60;99.90;;;15.38;nan;101310.97;5009818;28;20641;-66
2023/04/17 09:49:39;;;;;;;14.40;9.17;;;15.40;99.90;;;15.21;nan;101322.00;5009863;28;20638;-66
2023/04/17 09:52:06;;;;;;;12.53;10.00;;;15.10;99.90;;;15.07;nan;101318.81;5003403;28;20662;-68
2023/04/17 09:54:37;;;;;;;11.50;8.17;;;15.00;99.90;;;14.81;nan;101306.91;4997588;28;20673;-66
2023/04/17 09:57:09;;;;;;;12.50;10.50;;;14.80;99.90;;;14.64;nan;101326.63;4998750;28;21058;-68
2023/04/17 09:59:40;;;;;;;11.37;7.03;;;14.60;99.90;;;14.47;nan;101324.47;5004743;28;20629;-66
2023/04/17 10:02:08;;;;;;;13.00;10.60;;;14.40;99.90;;;14.39;nan;101326.84;5007572;28;20702;-69
2023/04/17 10:04:45;;;;;;;14.30;10.50;;;14.30;99.90;;;14.36;nan;101333.16;5030575;28;20613;-66
2023/04/17 10:07:13;;;;;;;13.20;11.33;;;14.30;99.90;;;14.27;nan;101323.31;5020484;28;20705;-65
2023/04/17 10:09:41;;;;;;;15.33;10.33;;;14.10;99.90;;;14.28;nan;101324.16;5007273;28;20709;-69
2023/04/17 10:12:17;;;;;;;12.50;11.00;;;14.10;99.90;;;14.34;nan;101328.97;4998639;28;20692;-67
2023/04/17 10:14:47;;;;;;;13.47;9.93;;;14.20;99.90;;;14.40;nan;101331.13;5003624;28;20629;-69
2023/04/17 10:17:32;;;;;;;9.90;5.43;;;14.20;99.90;;;14.51;nan;101331.16;5011523;28;20628;-67
2023/04/17 10:20:18;;;;;;;10.53;8.90;;;14.30;99.90;;;14.65;nan;101315.19;5007680;28;20642;-67